sensor_id;sensor_type;location;lat;lon;timestamp;P1;durP1;ratioP1;P2;durP2;ratioP2
3297;SDS011;1661;53.572;10.174;2022-09-01T00:00:04;1.90;;;1.80;;
3297;SDS011;1661;53.572;10.174;2022-09-01T00:02:35;2.07;;;1.70;;
3297;SDS011;1661;53.572;10.174;2022-09-01T00:05:03;1.90;;;1.77;;
3297;SDS011;1661;53.572;10.174;2022-09-01T00:07:32;2.10;;;2.00;;
3297;SDS011;1661;53.572;10.174;2022-09-01T00:09:59;2.77;;;2.17;;
3297;SDS011;1661;53.572;10.174;2022-09-01T00:12:29;2.47;;;2.13;;
3297;SDS011;1661;53.572;10.174;2022-09-01T00:14:56;3.27;;;2.27;;
3297;SDS011;1661;53.572;10.174;2022-09-01T00:17:23;1.90;;;1.70;;
3297;SDS011;1661;53.572;10.174;2022-09-01T00:19:50;1.83;;;1.73;;
3297;SDS011;1661;53.572;10.174;2022-09-01T00:22:17;5.63;;;2.07;;
3297;SDS011;1661;53.572;10.174;2022-09-01T00:24:45;3.77;;;1.60;;
3297;SDS011;1661;53.572;10.174;2022-09-01T00:27:12;2.47;;;1.67;;
3297;SDS011;1661;53.572;10.174;2022-09-01T00:29:39;3.03;;;2.73;;
3297;SDS011;1661;53.572;10.174;2022-09-01T00:32:06;1.90;;;1.80;;
3297;SDS011;1661;53.572;10.174;2022-09-01T00:34:33;2.70;;;1.40;;
3297;SDS011;1661;53.572;10.174;2022-09-01T00:36:59;2.70;;;2.00;;
3297;SDS011;1661;53.572;10.174;2022-09-01T00:39:26;2.07;;;1.87;;
3297;SDS011;1661;53.572;10.174;2022-09-01T00:41:54;2.00;;;1.80;;
3297;SDS011;1661;53.572;10.174;2022-09-01T00:44:22;1.50;;;1.40;;
3297;SDS011;1661;53.572;10.174;2022-09-01T00:46:52;2.37;;;1.67;;
3297;SDS011;1661;53.572;10.174;2022-09-01T00:49:21;1.83;;;1.73;;
3297;SDS011;1661;53.572;10.174;2022-09-01T00:51:53;2.83;;;1.83;;
3297;SDS011;1661;53.572;10.174;2022-09-01T00:54:26;2.00;;;1.83;;
3297;SDS011;1661;53.572;10.174;2022-09-01T00:56:58;3.43;;;1.83;;
3297;SDS011;1661;53.572;10.174;2022-09-01T00:59:27;2.23;;;2.07;;
3297;SDS011;1661;53.572;10.174;2022-09-01T01:01:54;1.50;;;1.37;;
3297;SDS011;1661;53.572;10.174;2022-09-01T01:04:22;3.10;;;1.60;;
3297;SDS011;1661;53.572;10.174;2022-09-01T01:06:50;1.70;;;1.50;;
3297;SDS011;1661;53.572;10.174;2022-09-01T01:09:23;2.73;;;1.70;;
3297;SDS011;1661;53.572;10.174;2022-09-01T01:11:52;1.70;;;1.50;;
3297;SDS011;1661;53.572;10.174;2022-09-01T01:14:25;1.80;;;1.70;;
3297;SDS011;1661;53.572;10.174;2022-09-01T01:16:55;2.00;;;1.80;;
3297;SDS011;1661;53.572;10.174;2022-09-01T01:19:24;2.33;;;2.10;;
3297;SDS011;1661;53.572;10.174;2022-09-01T01:22:16;1.67;;;1.57;;
3297;SDS011;1661;53.572;10.174;2022-09-01T01:25:07;4.03;;;1.90;;
3297;SDS011;1661;53.572;10.174;2022-09-01T01:27:37;2.50;;;1.80;;
3297;SDS011;1661;53.572;10.174;2022-09-01T01:30:07;2.00;;;1.67;;
3297;SDS011;1661;53.572;10.174;2022-09-01T01:32:36;2.97;;;2.10;;
3297;SDS011;1661;53.572;10.174;2022-09-01T01:35:12;2.10;;;1.90;;
3297;SDS011;1661;53.572;10.174;2022-09-01T01:37:42;2.00;;;1.80;;
3297;SDS011;1661;53.572;10.174;2022-09-01T01:40:12;1.83;;;1.73;;
3297;SDS011;1661;53.572;10.174;2022-09-01T01:42:42;3.27;;;1.30;;
3297;SDS011;1661;53.572;10.174;2022-09-01T01:45:10;1.83;;;1.70;;
3297;SDS011;1661;53.572;10.174;2022-09-01T01:47:41;2.23;;;1.20;;
3297;SDS011;1661;53.572;10.174;2022-09-01T01:50:10;2.10;;;1.90;;
3297;SDS011;1661;53.572;10.174;2022-09-01T01:52:37;3.90;;;1.87;;
3297;SDS011;1661;53.572;10.174;2022-09-01T01:55:04;1.60;;;1.50;;
3297;SDS011;1661;53.572;10.174;2022-09-01T01:57:38;1.90;;;1.80;;
3297;SDS011;1661;53.572;10.174;2022-09-01T02:00:13;2.03;;;1.60;;
3297;SDS011;1661;53.572;10.174;2022-09-01T02:02:43;1.83;;;1.53;;
3297;SDS011;1661;53.572;10.174;2022-09-01T02:05:17;1.73;;;1.20;;
3297;SDS011;1661;53.572;10.174;2022-09-01T02:07:49;1.40;;;1.20;;
3297;SDS011;1661;53.572;10.174;2022-09-01T02:10:20;3.40;;;1.87;;
3297;SDS011;1661;53.572;10.174;2022-09-01T02:12:49;2.33;;;1.80;;
3297;SDS011;1661;53.572;10.174;2022-09-01T02:15:16;1.97;;;1.87;;
3297;SDS011;1661;53.572;10.174;2022-09-01T02:17:43;2.53;;;1.77;;
3297;SDS011;1661;53.572;10.174;2022-09-01T02:20:11;1.83;;;1.73;;
3297;SDS011;1661;53.572;10.174;2022-09-01T02:22:40;2.00;;;1.80;;
3297;SDS011;1661;53.572;10.174;2022-09-01T02:25:08;2.40;;;1.80;;
3297;SDS011;1661;53.572;10.174;2022-09-01T02:27:35;1.33;;;1.23;;
3297;SDS011;1661;53.572;10.174;2022-09-01T02:30:05;1.77;;;1.67;;
3297;SDS011;1661;53.572;10.174;2022-09-01T02:32:35;1.83;;;1.73;;
3297;SDS011;1661;53.572;10.174;2022-09-01T02:35:03;1.80;;;1.70;;
3297;SDS011;1661;53.572;10.174;2022-09-01T02:37:34;3.03;;;1.57;;
3297;SDS011;1661;53.572;10.174;2022-09-01T02:40:03;2.00;;;1.80;;
3297;SDS011;1661;53.572;10.174;2022-09-01T02:42:32;1.80;;;1.70;;
3297;SDS011;1661;53.572;10.174;2022-09-01T02:44:59;3.70;;;1.77;;
3297;SDS011;1661;53.572;10.174;2022-09-01T02:47:28;2.90;;;1.90;;
3297;SDS011;1661;53.572;10.174;2022-09-01T02:49:54;2.67;;;1.60;;
3297;SDS011;1661;53.572;10.174;2022-09-01T02:52:23;1.60;;;1.50;;
3297;SDS011;1661;53.572;10.174;2022-09-01T02:54:50;2.60;;;2.40;;
3297;SDS011;1661;53.572;10.174;2022-09-01T02:57:18;2.87;;;1.80;;
3297;SDS011;1661;53.572;10.174;2022-09-01T02:59:47;2.23;;;2.03;;
3297;SDS011;1661;53.572;10.174;2022-09-01T03:02:14;2.70;;;2.47;;
3297;SDS011;1661;53.572;10.174;2022-09-01T03:04:42;2.43;;;1.83;;
3297;SDS011;1661;53.572;10.174;2022-09-01T03:07:08;2.57;;;2.37;;
3297;SDS011;1661;53.572;10.174;2022-09-01T03:09:37;1.53;;;1.43;;
3297;SDS011;1661;53.572;10.174;2022-09-01T03:12:05;2.90;;;2.17;;
3297;SDS011;1661;53.572;10.174;2022-09-01T03:14:32;2.10;;;1.57;;
3297;SDS011;1661;53.572;10.174;2022-09-01T03:16:59;2.63;;;2.30;;
3297;SDS011;1661;53.572;10.174;2022-09-01T03:19:26;1.53;;;1.43;;
3297;SDS011;1661;53.572;10.174;2022-09-01T03:22:09;2.50;;;2.20;;
3297;SDS011;1661;53.572;10.174;2022-09-01T03:24:36;1.43;;;1.33;;
3297;SDS011;1661;53.572;10.174;2022-09-01T03:27:03;3.30;;;1.83;;
3297;SDS011;1661;53.572;10.174;2022-09-01T03:29:30;1.60;;;1.50;;
3297;SDS011;1661;53.572;10.174;2022-09-01T03:31:56;1.50;;;1.27;;
3297;SDS011;1661;53.572;10.174;2022-09-01T03:34:23;1.90;;;1.80;;
3297;SDS011;1661;53.572;10.174;2022-09-01T03:36:50;1.67;;;1.50;;
3297;SDS011;1661;53.572;10.174;2022-09-01T03:39:19;1.50;;;1.40;;
3297;SDS011;1661;53.572;10.174;2022-09-01T03:41:46;1.60;;;1.50;;
3297;SDS011;1661;53.572;10.174;2022-09-01T03:44:13;1.70;;;1.50;;
3297;SDS011;1661;53.572;10.174;2022-09-01T03:46:40;2.77;;;1.90;;
3297;SDS011;1661;53.572;10.174;2022-09-01T03:49:08;1.60;;;1.50;;
3297;SDS011;1661;53.572;10.174;2022-09-01T03:51:37;2.67;;;1.90;;
3297;SDS011;1661;53.572;10.174;2022-09-01T03:54:04;2.60;;;2.40;;
3297;SDS011;1661;53.572;10.174;2022-09-01T03:56:32;2.73;;;2.53;;
3297;SDS011;1661;53.572;10.174;2022-09-01T03:59:00;2.70;;;2.27;;
3297;SDS011;1661;53.572;10.174;2022-09-01T04:01:28;2.03;;;1.60;;
3297;SDS011;1661;53.572;10.174;2022-09-01T04:03:57;5.20;;;1.83;;
3297;SDS011;1661;53.572;10.174;2022-09-01T04:06:25;2.13;;;1.93;;
3297;SDS011;1661;53.572;10.174;2022-09-01T04:08:52;3.70;;;2.33;;
3297;SDS011;1661;53.572;10.174;2022-09-01T04:11:26;6.70;;;1.70;;
3297;SDS011;1661;53.572;10.174;2022-09-01T04:13:56;2.30;;;2.10;;
3297;SDS011;1661;53.572;10.174;2022-09-01T04:16:24;1.87;;;1.73;;
3297;SDS011;1661;53.572;10.174;2022-09-01T04:19:10;2.67;;;2.30;;
3297;SDS011;1661;53.572;10.174;2022-09-01T04:21:44;2.60;;;1.93;;
3297;SDS011;1661;53.572;10.174;2022-09-01T04:24:11;2.00;;;1.80;;
3297;SDS011;1661;53.572;10.174;2022-09-01T04:26:38;3.20;;;2.57;;
3297;SDS011;1661;53.572;10.174;2022-09-01T04:29:07;2.60;;;2.40;;
3297;SDS011;1661;53.572;10.174;2022-09-01T04:31:35;3.87;;;2.03;;
3297;SDS011;1661;53.572;10.174;2022-09-01T04:34:04;2.90;;;2.70;;
3297;SDS011;1661;53.572;10.174;2022-09-01T04:36:37;2.87;;;2.67;;
3297;SDS011;1661;53.572;10.174;2022-09-01T04:39:05;1.87;;;1.77;;
3297;SDS011;1661;53.572;10.174;2022-09-01T04:41:35;2.53;;;2.33;;
3297;SDS011;1661;53.572;10.174;2022-09-01T04:44:04;2.50;;;2.20;;
3297;SDS011;1661;53.572;10.174;2022-09-01T04:46:34;2.50;;;2.30;;
3297;SDS011;1661;53.572;10.174;2022-09-01T04:49:05;4.57;;;2.80;;
3297;SDS011;1661;53.572;10.174;2022-09-01T04:51:34;2.57;;;2.40;;
3297;SDS011;1661;53.572;10.174;2022-09-01T04:54:02;2.27;;;2.07;;
3297;SDS011;1661;53.572;10.174;2022-09-01T04:56:36;3.10;;;2.70;;
3297;SDS011;1661;53.572;10.174;2022-09-01T04:59:04;2.87;;;2.67;;
3297;SDS011;1661;53.572;10.174;2022-09-01T05:01:33;3.00;;;2.80;;
3297;SDS011;1661;53.572;10.174;2022-09-01T05:04:08;2.37;;;2.10;;
3297;SDS011;1661;53.572;10.174;2022-09-01T05:06:38;2.50;;;2.30;;
3297;SDS011;1661;53.572;10.174;2022-09-01T05:09:06;1.90;;;1.80;;
3297;SDS011;1661;53.572;10.174;2022-09-01T05:11:35;2.47;;;2.27;;
3297;SDS011;1661;53.572;10.174;2022-09-01T05:14:03;2.50;;;2.30;;
3297;SDS011;1661;53.572;10.174;2022-09-01T05:16:31;2.50;;;2.30;;
3297;SDS011;1661;53.572;10.174;2022-09-01T05:19:02;2.97;;;2.50;;
3297;SDS011;1661;53.572;10.174;2022-09-01T05:21:29;3.20;;;2.90;;
3297;SDS011;1661;53.572;10.174;2022-09-01T05:23:56;6.30;;;2.10;;
3297;SDS011;1661;53.572;10.174;2022-09-01T05:26:26;2.67;;;2.43;;
3297;SDS011;1661;53.572;10.174;2022-09-01T05:28:57;3.93;;;2.47;;
3297;SDS011;1661;53.572;10.174;2022-09-01T05:31:26;3.93;;;2.80;;
3297;SDS011;1661;53.572;10.174;2022-09-01T05:34:03;3.70;;;2.13;;
3297;SDS011;1661;53.572;10.174;2022-09-01T05:36:34;5.13;;;3.03;;
3297;SDS011;1661;53.572;10.174;2022-09-01T05:39:03;1.93;;;1.67;;
3297;SDS011;1661;53.572;10.174;2022-09-01T05:41:31;2.03;;;1.93;;
3297;SDS011;1661;53.572;10.174;2022-09-01T05:44:00;1.73;;;1.63;;
3297;SDS011;1661;53.572;10.174;2022-09-01T05:46:28;2.60;;;2.40;;
3297;SDS011;1661;53.572;10.174;2022-09-01T05:48:55;2.03;;;1.83;;
3297;SDS011;1661;53.572;10.174;2022-09-01T05:51:24;8.30;;;2.50;;
3297;SDS011;1661;53.572;10.174;2022-09-01T05:53:53;2.30;;;2.10;;
3297;SDS011;1661;53.572;10.174;2022-09-01T05:56:23;2.80;;;2.33;;
3297;SDS011;1661;53.572;10.174;2022-09-01T05:58:50;2.10;;;1.90;;
3297;SDS011;1661;53.572;10.174;2022-09-01T06:01:19;2.53;;;2.33;;
3297;SDS011;1661;53.572;10.174;2022-09-01T06:03:48;2.53;;;2.33;;
3297;SDS011;1661;53.572;10.174;2022-09-01T06:06:17;2.40;;;2.20;;
3297;SDS011;1661;53.572;10.174;2022-09-01T06:08:47;4.03;;;2.60;;
3297;SDS011;1661;53.572;10.174;2022-09-01T06:11:14;7.97;;;2.67;;
3297;SDS011;1661;53.572;10.174;2022-09-01T06:13:41;3.63;;;2.47;;
3297;SDS011;1661;53.572;10.174;2022-09-01T06:16:11;3.20;;;2.93;;
3297;SDS011;1661;53.572;10.174;2022-09-01T06:18:39;2.60;;;2.33;;
3297;SDS011;1661;53.572;10.174;2022-09-01T06:21:07;2.50;;;2.30;;
3297;SDS011;1661;53.572;10.174;2022-09-01T06:23:38;3.30;;;2.07;;
3297;SDS011;1661;53.572;10.174;2022-09-01T06:26:08;2.13;;;1.93;;
3297;SDS011;1661;53.572;10.174;2022-09-01T06:28:42;2.90;;;2.30;;
3297;SDS011;1661;53.572;10.174;2022-09-01T06:31:09;4.03;;;2.00;;
3297;SDS011;1661;53.572;10.174;2022-09-01T06:33:36;3.80;;;1.93;;
3297;SDS011;1661;53.572;10.174;2022-09-01T06:36:03;4.73;;;2.53;;
3297;SDS011;1661;53.572;10.174;2022-09-01T06:38:30;1.90;;;1.80;;
3297;SDS011;1661;53.572;10.174;2022-09-01T06:41:00;2.17;;;1.47;;
3297;SDS011;1661;53.572;10.174;2022-09-01T06:43:29;2.73;;;1.80;;
3297;SDS011;1661;53.572;10.174;2022-09-01T06:45:59;2.13;;;1.70;;
3297;SDS011;1661;53.572;10.174;2022-09-01T06:48:26;3.73;;;2.33;;
3297;SDS011;1661;53.572;10.174;2022-09-01T06:50:57;1.70;;;1.60;;
3297;SDS011;1661;53.572;10.174;2022-09-01T06:53:27;3.10;;;1.70;;
3297;SDS011;1661;53.572;10.174;2022-09-01T06:55:56;2.30;;;1.73;;
3297;SDS011;1661;53.572;10.174;2022-09-01T06:58:23;5.50;;;2.13;;
3297;SDS011;1661;53.572;10.174;2022-09-01T07:00:51;2.97;;;1.70;;
3297;SDS011;1661;53.572;10.174;2022-09-01T07:03:18;2.07;;;1.60;;
3297;SDS011;1661;53.572;10.174;2022-09-01T07:05:48;7.03;;;1.30;;
3297;SDS011;1661;53.572;10.174;2022-09-01T07:08:17;5.80;;;1.73;;
3297;SDS011;1661;53.572;10.174;2022-09-01T07:10:46;2.07;;;1.00;;
3297;SDS011;1661;53.572;10.174;2022-09-01T07:13:16;1.50;;;0.90;;
3297;SDS011;1661;53.572;10.174;2022-09-01T07:15:48;3.63;;;1.30;;
3297;SDS011;1661;53.572;10.174;2022-09-01T07:18:18;5.73;;;1.40;;
3297;SDS011;1661;53.572;10.174;2022-09-01T07:20:46;2.03;;;1.17;;
3297;SDS011;1661;53.572;10.174;2022-09-01T07:23:15;1.37;;;1.20;;
3297;SDS011;1661;53.572;10.174;2022-09-01T07:25:44;3.77;;;1.27;;
3297;SDS011;1661;53.572;10.174;2022-09-01T07:28:13;1.80;;;1.57;;
3297;SDS011;1661;53.572;10.174;2022-09-01T07:30:42;1.73;;;1.30;;
3297;SDS011;1661;53.572;10.174;2022-09-01T07:33:12;1.50;;;1.00;;
3297;SDS011;1661;53.572;10.174;2022-09-01T07:35:41;1.67;;;0.90;;
3297;SDS011;1661;53.572;10.174;2022-09-01T07:38:08;6.00;;;1.40;;
3297;SDS011;1661;53.572;10.174;2022-09-01T07:40:35;2.97;;;0.97;;
3297;SDS011;1661;53.572;10.174;2022-09-01T07:43:04;1.30;;;0.90;;
3297;SDS011;1661;53.572;10.174;2022-09-01T07:45:33;7.73;;;1.40;;
3297;SDS011;1661;53.572;10.174;2022-09-01T07:48:02;1.40;;;1.00;;
3297;SDS011;1661;53.572;10.174;2022-09-01T07:50:31;4.40;;;1.37;;
3297;SDS011;1661;53.572;10.174;2022-09-01T07:53:00;1.57;;;1.13;;
3297;SDS011;1661;53.572;10.174;2022-09-01T07:55:27;1.70;;;1.30;;
3297;SDS011;1661;53.572;10.174;2022-09-01T07:57:54;1.47;;;1.30;;
3297;SDS011;1661;53.572;10.174;2022-09-01T08:00:21;5.90;;;1.27;;
3297;SDS011;1661;53.572;10.174;2022-09-01T08:02:48;6.10;;;1.10;;
3297;SDS011;1661;53.572;10.174;2022-09-01T08:05:16;1.40;;;1.10;;
3297;SDS011;1661;53.572;10.174;2022-09-01T08:07:46;1.70;;;1.07;;
3297;SDS011;1661;53.572;10.174;2022-09-01T08:10:14;1.10;;;0.80;;
3297;SDS011;1661;53.572;10.174;2022-09-01T08:12:41;1.10;;;0.70;;
3297;SDS011;1661;53.572;10.174;2022-09-01T08:15:09;5.70;;;1.23;;
3297;SDS011;1661;53.572;10.174;2022-09-01T08:17:37;1.27;;;0.90;;
3297;SDS011;1661;53.572;10.174;2022-09-01T08:20:05;1.37;;;0.70;;
3297;SDS011;1661;53.572;10.174;2022-09-01T08:22:33;1.60;;;1.00;;
3297;SDS011;1661;53.572;10.174;2022-09-01T08:25:02;2.40;;;0.80;;
3297;SDS011;1661;53.572;10.174;2022-09-01T08:27:31;1.20;;;1.00;;
3297;SDS011;1661;53.572;10.174;2022-09-01T08:30:00;1.33;;;0.80;;
3297;SDS011;1661;53.572;10.174;2022-09-01T08:32:27;1.57;;;0.97;;
3297;SDS011;1661;53.572;10.174;2022-09-01T08:34:54;1.30;;;1.00;;
3297;SDS011;1661;53.572;10.174;2022-09-01T08:37:21;1.47;;;0.93;;
3297;SDS011;1661;53.572;10.174;2022-09-01T08:39:49;2.43;;;1.20;;
3297;SDS011;1661;53.572;10.174;2022-09-01T08:42:17;4.70;;;0.77;;
3297;SDS011;1661;53.572;10.174;2022-09-01T08:44:55;1.20;;;0.80;;
3297;SDS011;1661;53.572;10.174;2022-09-01T08:47:27;1.70;;;0.90;;
3297;SDS011;1661;53.572;10.174;2022-09-01T08:49:57;2.83;;;0.90;;
3297;SDS011;1661;53.572;10.174;2022-09-01T08:52:25;1.10;;;0.60;;
3297;SDS011;1661;53.572;10.174;2022-09-01T08:54:56;1.70;;;1.00;;
3297;SDS011;1661;53.572;10.174;2022-09-01T08:57:30;1.20;;;0.90;;
3297;SDS011;1661;53.572;10.174;2022-09-01T09:00:00;1.13;;;0.70;;
3297;SDS011;1661;53.572;10.174;2022-09-01T09:02:32;1.50;;;0.90;;
3297;SDS011;1661;53.572;10.174;2022-09-01T09:05:16;3.93;;;0.90;;
3297;SDS011;1661;53.572;10.174;2022-09-01T09:07:57;2.50;;;0.90;;
3297;SDS011;1661;53.572;10.174;2022-09-01T09:10:43;1.67;;;1.10;;
3297;SDS011;1661;53.572;10.174;2022-09-01T09:13:20;1.30;;;0.80;;
3297;SDS011;1661;53.572;10.174;2022-09-01T09:15:53;2.50;;;0.90;;
3297;SDS011;1661;53.572;10.174;2022-09-01T09:18:26;1.30;;;0.80;;
3297;SDS011;1661;53.572;10.174;2022-09-01T09:21:00;1.10;;;0.80;;
3297;SDS011;1661;53.572;10.174;2022-09-01T09:23:35;1.60;;;0.80;;
3297;SDS011;1661;53.572;10.174;2022-09-01T09:26:07;4.03;;;1.07;;
3297;SDS011;1661;53.572;10.174;2022-09-01T09:28:33;1.60;;;1.00;;
3297;SDS011;1661;53.572;10.174;2022-09-01T09:33:52;3.73;;;1.17;;
3297;SDS011;1661;53.572;10.174;2022-09-01T09:36:19;5.27;;;1.23;;
3297;SDS011;1661;53.572;10.174;2022-09-01T09:38:57;2.43;;;0.93;;
3297;SDS011;1661;53.572;10.174;2022-09-01T09:41:34;2.80;;;0.90;;
3297;SDS011;1661;53.572;10.174;2022-09-01T09:44:03;2.13;;;0.90;;
3297;SDS011;1661;53.572;10.174;2022-09-01T09:46:36;5.43;;;1.53;;
3297;SDS011;1661;53.572;10.174;2022-09-01T09:49:05;1.40;;;1.00;;
3297;SDS011;1661;53.572;10.174;2022-09-01T09:51:35;3.27;;;0.83;;
3297;SDS011;1661;53.572;10.174;2022-09-01T09:54:09;3.20;;;1.00;;
3297;SDS011;1661;53.572;10.174;2022-09-01T09:56:38;2.80;;;1.07;;
3297;SDS011;1661;53.572;10.174;2022-09-01T09:59:15;2.27;;;0.80;;
3297;SDS011;1661;53.572;10.174;2022-09-01T10:01:45;1.20;;;0.80;;
3297;SDS011;1661;53.572;10.174;2022-09-01T10:04:29;1.20;;;0.80;;
3297;SDS011;1661;53.572;10.174;2022-09-01T10:06:58;1.23;;;0.80;;
3297;SDS011;1661;53.572;10.174;2022-09-01T10:09:32;1.40;;;1.17;;
3297;SDS011;1661;53.572;10.174;2022-09-01T10:12:01;1.67;;;0.93;;
3297;SDS011;1661;53.572;10.174;2022-09-01T10:14:30;8.20;;;1.03;;
3297;SDS011;1661;53.572;10.174;2022-09-01T10:17:05;1.30;;;0.80;;
3297;SDS011;1661;53.572;10.174;2022-09-01T10:19:37;6.33;;;1.03;;
3297;SDS011;1661;53.572;10.174;2022-09-01T10:22:08;2.37;;;1.00;;
3297;SDS011;1661;53.572;10.174;2022-09-01T10:24:35;1.70;;;1.10;;
3297;SDS011;1661;53.572;10.174;2022-09-01T10:27:05;1.03;;;0.70;;
3297;SDS011;1661;53.572;10.174;2022-09-01T10:29:36;1.13;;;0.83;;
3297;SDS011;1661;53.572;10.174;2022-09-01T10:32:11;1.10;;;0.70;;
3297;SDS011;1661;53.572;10.174;2022-09-01T10:34:42;1.30;;;0.90;;
3297;SDS011;1661;53.572;10.174;2022-09-01T10:37:10;2.10;;;0.73;;
3297;SDS011;1661;53.572;10.174;2022-09-01T10:42:39;1.20;;;0.73;;
3297;SDS011;1661;53.572;10.174;2022-09-01T10:45:15;1.40;;;1.10;;
3297;SDS011;1661;53.572;10.174;2022-09-01T10:47:48;1.17;;;0.80;;
3297;SDS011;1661;53.572;10.174;2022-09-01T10:53:05;1.30;;;0.80;;
3297;SDS011;1661;53.572;10.174;2022-09-01T10:55:36;1.20;;;1.00;;
3297;SDS011;1661;53.572;10.174;2022-09-01T10:58:16;1.20;;;0.80;;
3297;SDS011;1661;53.572;10.174;2022-09-01T11:00:53;1.20;;;0.80;;
3297;SDS011;1661;53.572;10.174;2022-09-01T11:03:36;1.63;;;0.90;;
3297;SDS011;1661;53.572;10.174;2022-09-01T11:09:22;2.23;;;1.43;;
3297;SDS011;1661;53.572;10.174;2022-09-01T11:14:49;2.13;;;1.10;;
3297;SDS011;1661;53.572;10.174;2022-09-01T11:17:19;1.40;;;1.00;;
3297;SDS011;1661;53.572;10.174;2022-09-01T11:19:57;1.83;;;0.90;;
3297;SDS011;1661;53.572;10.174;2022-09-01T11:22:31;3.07;;;0.97;;
3297;SDS011;1661;53.572;10.174;2022-09-01T11:28:05;1.33;;;0.90;;
3297;SDS011;1661;53.572;10.174;2022-09-01T11:30:43;1.40;;;1.10;;
3297;SDS011;1661;53.572;10.174;2022-09-01T11:33:28;3.93;;;0.90;;
3297;SDS011;1661;53.572;10.174;2022-09-01T11:36:13;1.10;;;0.80;;
3297;SDS011;1661;53.572;10.174;2022-09-01T11:38:47;2.03;;;1.00;;
3297;SDS011;1661;53.572;10.174;2022-09-01T11:41:22;2.27;;;1.10;;
3297;SDS011;1661;53.572;10.174;2022-09-01T11:43:51;2.27;;;1.23;;
3297;SDS011;1661;53.572;10.174;2022-09-01T11:46:24;2.43;;;1.20;;
3297;SDS011;1661;53.572;10.174;2022-09-01T11:48:54;2.30;;;1.13;;
3297;SDS011;1661;53.572;10.174;2022-09-01T11:51:24;1.20;;;0.90;;
3297;SDS011;1661;53.572;10.174;2022-09-01T11:53:51;2.40;;;1.20;;
3297;SDS011;1661;53.572;10.174;2022-09-01T11:56:26;1.60;;;1.00;;
3297;SDS011;1661;53.572;10.174;2022-09-01T11:58:53;1.07;;;0.73;;
3297;SDS011;1661;53.572;10.174;2022-09-01T12:01:21;1.50;;;0.80;;
3297;SDS011;1661;53.572;10.174;2022-09-01T12:03:56;1.50;;;1.10;;
3297;SDS011;1661;53.572;10.174;2022-09-01T12:06:25;2.70;;;1.27;;
3297;SDS011;1661;53.572;10.174;2022-09-01T12:08:54;1.47;;;1.20;;
3297;SDS011;1661;53.572;10.174;2022-09-01T12:11:23;2.23;;;1.00;;
3297;SDS011;1661;53.572;10.174;2022-09-01T12:13:55;1.60;;;1.03;;
3297;SDS011;1661;53.572;10.174;2022-09-01T12:16:25;2.00;;;1.20;;
3297;SDS011;1661;53.572;10.174;2022-09-01T12:18:54;6.57;;;1.07;;
3297;SDS011;1661;53.572;10.174;2022-09-01T12:21:25;3.13;;;1.30;;
3297;SDS011;1661;53.572;10.174;2022-09-01T12:24:08;1.47;;;1.10;;
3297;SDS011;1661;53.572;10.174;2022-09-01T12:26:38;2.60;;;0.80;;
3297;SDS011;1661;53.572;10.174;2022-09-01T12:29:05;1.27;;;0.90;;
3297;SDS011;1661;53.572;10.174;2022-09-01T12:31:32;4.20;;;0.87;;
3297;SDS011;1661;53.572;10.174;2022-09-01T12:33:59;1.30;;;1.00;;
3297;SDS011;1661;53.572;10.174;2022-09-01T12:36:30;1.40;;;0.80;;
3297;SDS011;1661;53.572;10.174;2022-09-01T12:41:45;1.40;;;1.10;;
3297;SDS011;1661;53.572;10.174;2022-09-01T12:44:26;1.20;;;0.97;;
3297;SDS011;1661;53.572;10.174;2022-09-01T12:46:54;1.30;;;1.10;;
3297;SDS011;1661;53.572;10.174;2022-09-01T12:49:23;2.80;;;0.80;;
3297;SDS011;1661;53.572;10.174;2022-09-01T12:52:06;2.23;;;0.83;;
3297;SDS011;1661;53.572;10.174;2022-09-01T12:54:44;1.23;;;0.90;;
3297;SDS011;1661;53.572;10.174;2022-09-01T12:57:19;2.27;;;0.90;;
3297;SDS011;1661;53.572;10.174;2022-09-01T13:00:06;3.00;;;1.07;;
3297;SDS011;1661;53.572;10.174;2022-09-01T13:02:43;3.80;;;1.10;;
3297;SDS011;1661;53.572;10.174;2022-09-01T13:05:17;2.13;;;0.93;;
3297;SDS011;1661;53.572;10.174;2022-09-01T13:07:52;1.67;;;0.93;;
3297;SDS011;1661;53.572;10.174;2022-09-01T13:10:20;1.60;;;1.33;;
3297;SDS011;1661;53.572;10.174;2022-09-01T13:12:49;1.30;;;0.80;;
3297;SDS011;1661;53.572;10.174;2022-09-01T13:15:16;1.40;;;1.00;;
3297;SDS011;1661;53.572;10.174;2022-09-01T13:17:44;10.43;;;1.60;;
3297;SDS011;1661;53.572;10.174;2022-09-01T13:20:11;3.10;;;1.30;;
3297;SDS011;1661;53.572;10.174;2022-09-01T13:22:38;5.43;;;1.13;;
3297;SDS011;1661;53.572;10.174;2022-09-01T13:25:10;1.90;;;1.03;;
3297;SDS011;1661;53.572;10.174;2022-09-01T13:27:37;1.50;;;1.30;;
3297;SDS011;1661;53.572;10.174;2022-09-01T13:30:08;3.73;;;0.80;;
3297;SDS011;1661;53.572;10.174;2022-09-01T13:32:36;1.23;;;0.83;;
3297;SDS011;1661;53.572;10.174;2022-09-01T13:35:05;2.00;;;1.50;;
3297;SDS011;1661;53.572;10.174;2022-09-01T13:37:32;8.00;;;1.10;;
3297;SDS011;1661;53.572;10.174;2022-09-01T13:39:59;1.43;;;0.90;;
3297;SDS011;1661;53.572;10.174;2022-09-01T13:42:28;1.30;;;0.80;;
3297;SDS011;1661;53.572;10.174;2022-09-01T13:44:54;1.20;;;0.80;;
3297;SDS011;1661;53.572;10.174;2022-09-01T13:47:21;1.57;;;0.87;;
3297;SDS011;1661;53.572;10.174;2022-09-01T13:49:49;1.50;;;0.87;;
3297;SDS011;1661;53.572;10.174;2022-09-01T13:52:16;2.73;;;1.03;;
3297;SDS011;1661;53.572;10.174;2022-09-01T13:54:43;2.90;;;1.10;;
3297;SDS011;1661;53.572;10.174;2022-09-01T13:57:10;1.50;;;1.00;;
3297;SDS011;1661;53.572;10.174;2022-09-01T13:59:40;1.80;;;1.00;;
3297;SDS011;1661;53.572;10.174;2022-09-01T14:02:07;2.77;;;1.10;;
3297;SDS011;1661;53.572;10.174;2022-09-01T14:04:34;2.30;;;0.77;;
3297;SDS011;1661;53.572;10.174;2022-09-01T14:07:01;1.93;;;0.83;;
3297;SDS011;1661;53.572;10.174;2022-09-01T14:09:28;3.00;;;1.47;;
3297;SDS011;1661;53.572;10.174;2022-09-01T14:11:55;2.50;;;0.97;;
3297;SDS011;1661;53.572;10.174;2022-09-01T14:14:21;1.97;;;0.90;;
3297;SDS011;1661;53.572;10.174;2022-09-01T14:16:50;5.10;;;0.93;;
3297;SDS011;1661;53.572;10.174;2022-09-01T14:19:18;5.33;;;0.90;;
3297;SDS011;1661;53.572;10.174;2022-09-01T14:21:44;1.20;;;0.80;;
3297;SDS011;1661;53.572;10.174;2022-09-01T14:24:13;3.63;;;0.90;;
3297;SDS011;1661;53.572;10.174;2022-09-01T14:26:42;1.73;;;0.90;;
3297;SDS011;1661;53.572;10.174;2022-09-01T14:29:09;1.40;;;1.07;;
3297;SDS011;1661;53.572;10.174;2022-09-01T14:31:36;1.50;;;0.97;;
3297;SDS011;1661;53.572;10.174;2022-09-01T14:34:04;4.57;;;1.27;;
3297;SDS011;1661;53.572;10.174;2022-09-01T14:36:31;2.10;;;0.90;;
3297;SDS011;1661;53.572;10.174;2022-09-01T14:38:58;2.80;;;1.13;;
3297;SDS011;1661;53.572;10.174;2022-09-01T14:41:25;1.50;;;0.80;;
3297;SDS011;1661;53.572;10.174;2022-09-01T14:43:52;2.50;;;1.13;;
3297;SDS011;1661;53.572;10.174;2022-09-01T14:46:20;1.50;;;0.97;;
3297;SDS011;1661;53.572;10.174;2022-09-01T14:48:47;1.20;;;0.80;;
3297;SDS011;1661;53.572;10.174;2022-09-01T14:51:20;3.00;;;0.87;;
3297;SDS011;1661;53.572;10.174;2022-09-01T14:53:48;2.27;;;0.80;;
3297;SDS011;1661;53.572;10.174;2022-09-01T14:56:16;7.23;;;1.27;;
3297;SDS011;1661;53.572;10.174;2022-09-01T14:58:43;1.20;;;0.73;;
3297;SDS011;1661;53.572;10.174;2022-09-01T15:01:13;1.10;;;0.87;;
3297;SDS011;1661;53.572;10.174;2022-09-01T15:03:41;2.43;;;0.97;;
3297;SDS011;1661;53.572;10.174;2022-09-01T15:06:10;3.80;;;1.13;;
3297;SDS011;1661;53.572;10.174;2022-09-01T15:08:39;1.20;;;0.77;;
3297;SDS011;1661;53.572;10.174;2022-09-01T15:11:07;1.20;;;0.80;;
3297;SDS011;1661;53.572;10.174;2022-09-01T15:13:35;2.40;;;0.80;;
3297;SDS011;1661;53.572;10.174;2022-09-01T15:16:03;1.80;;;0.87;;
3297;SDS011;1661;53.572;10.174;2022-09-01T15:18:30;1.20;;;0.90;;
3297;SDS011;1661;53.572;10.174;2022-09-01T15:20:56;1.40;;;0.90;;
3297;SDS011;1661;53.572;10.174;2022-09-01T15:23:24;2.60;;;0.90;;
3297;SDS011;1661;53.572;10.174;2022-09-01T15:25:53;3.37;;;1.00;;
3297;SDS011;1661;53.572;10.174;2022-09-01T15:28:22;1.53;;;1.10;;
3297;SDS011;1661;53.572;10.174;2022-09-01T15:30:49;3.37;;;0.77;;
3297;SDS011;1661;53.572;10.174;2022-09-01T15:33:17;2.70;;;0.80;;
3297;SDS011;1661;53.572;10.174;2022-09-01T15:35:45;1.30;;;1.10;;